createdAt,value
2022-10-11T00:01:38.398Z,55.58
2022-10-11T00:04:40.014Z,55.34
2022-10-11T00:07:41.707Z,55.55
2022-10-11T00:10:43.368Z,55.43
2022-10-11T00:13:44.966Z,55.63
2022-10-11T00:16:46.484Z,55.57
2022-10-11T00:19:48.033Z,55.59
2022-10-11T00:22:49.726Z,55.56
2022-10-11T00:25:59.512Z,55.60
2022-10-11T00:29:01.201Z,55.61
2022-10-11T00:32:02.842Z,55.62
2022-10-11T00:35:06.506Z,55.65
2022-10-11T00:38:08.100Z,55.61
2022-10-11T00:41:10.492Z,55.56
2022-10-11T00:44:24.067Z,55.63
2022-10-11T00:47:25.652Z,55.72
2022-10-11T00:50:30.161Z,55.81
2022-10-11T00:53:32.749Z,55.58
2022-10-11T00:56:37.952Z,55.67
2022-10-11T00:59:48.185Z,55.79
2022-10-11T01:02:50.776Z,55.87
2022-10-11T01:05:52.801Z,55.85
2022-10-11T01:08:54.620Z,55.77
2022-10-11T01:11:59.408Z,56.08
2022-10-11T01:15:04.177Z,55.80
2022-10-11T01:18:28.159Z,55.95
2022-10-11T01:21:34.887Z,56.01
2022-10-11T01:24:48.441Z,55.94
2022-10-11T01:27:58.688Z,55.90
2022-10-11T01:31:17.100Z,55.85
2022-10-11T01:34:59.962Z,55.91
2022-10-11T01:38:32.338Z,55.86
2022-10-11T01:41:46.345Z,55.83
2022-10-11T01:44:50.740Z,55.86
2022-10-11T01:48:13.795Z,55.96
2022-10-11T01:51:16.205Z,55.89
2022-10-11T01:55:08.198Z,55.95
2022-10-11T01:58:15.274Z,55.87
2022-10-11T02:01:45.621Z,56.09
2022-10-11T02:05:02.987Z,56.02
2022-10-11T02:08:32.468Z,55.99
2022-10-11T02:11:35.187Z,56.05
2022-10-11T02:14:42.737Z,56.02
2022-10-11T02:17:49.925Z,56.09
2022-10-11T02:20:53.374Z,56.16
2022-10-11T02:24:05.834Z,56.14
2022-10-11T02:27:10.364Z,56.19
2022-10-11T02:30:12.420Z,56.24
2022-10-11T02:33:18.693Z,56.14
2022-10-11T02:36:31.225Z,56.18
2022-10-11T02:39:55.980Z,56.14
2022-10-11T02:43:03.999Z,56.08
2022-10-11T02:46:07.906Z,56.12
2022-10-11T02:49:10.932Z,56.23
2022-10-11T02:52:14.463Z,56.33
2022-10-11T02:55:16.031Z,56.34
2022-10-11T02:58:17.903Z,56.55
2022-10-11T03:01:19.506Z,56.25
2022-10-11T03:04:21.138Z,56.44
2022-10-11T03:07:22.711Z,56.34
2022-10-11T03:10:24.340Z,56.34
2022-10-11T03:13:26.066Z,56.36
2022-10-11T03:16:27.793Z,56.23
2022-10-11T03:19:29.367Z,56.25
2022-10-11T03:22:30.875Z,56.38
2022-10-11T03:25:32.414Z,56.46
2022-10-11T03:28:34.103Z,56.31
2022-10-11T03:31:36.223Z,56.46
2022-10-11T03:34:37.749Z,56.51
2022-10-11T03:37:39.310Z,56.47
2022-10-11T03:40:42.741Z,56.46
2022-10-11T03:43:44.377Z,56.51
2022-10-11T03:46:45.981Z,56.55
2022-10-11T03:49:47.576Z,56.42
2022-10-11T03:52:49.118Z,56.42
2022-10-11T03:55:55.174Z,56.42
2022-10-11T03:58:56.739Z,56.54
2022-10-11T04:01:58.387Z,56.45
2022-10-11T04:05:00.077Z,56.55
2022-10-11T04:08:01.724Z,56.46
2022-10-11T04:11:03.453Z,56.51
2022-10-11T04:14:05.358Z,56.63
2022-10-11T04:17:06.891Z,56.48
2022-10-11T04:20:09.310Z,56.52
2022-10-11T04:23:10.876Z,56.61
2022-10-11T04:26:12.417Z,56.48
2022-10-11T04:29:14.189Z,56.53
2022-10-11T04:32:15.776Z,56.59
2022-10-11T04:35:17.428Z,56.61
2022-10-11T04:38:19.018Z,56.58
2022-10-11T04:41:20.551Z,56.57
2022-10-11T04:44:22.095Z,56.59
2022-10-11T04:47:23.651Z,56.54
2022-10-11T04:50:25.149Z,56.62
2022-10-11T04:53:26.786Z,56.65
2022-10-11T04:56:28.955Z,56.65
2022-10-11T04:59:31.032Z,56.70
2022-10-11T05:02:32.699Z,56.55
2022-10-11T05:05:34.268Z,56.74
2022-10-11T05:08:35.824Z,56.75
2022-10-11T05:11:37.361Z,56.64
2022-10-11T05:14:38.964Z,56.66
2022-10-11T05:17:40.541Z,56.85
2022-10-11T05:20:42.195Z,56.90
2022-10-11T05:23:44.277Z,56.92
2022-10-11T05:26:45.833Z,56.80
2022-10-11T05:29:47.491Z,57.00
2022-10-11T05:32:49.032Z,56.91
2022-10-11T05:35:50.653Z,57.00
2022-10-11T05:38:52.195Z,57.00
2022-10-11T05:41:53.773Z,57.02
2022-10-11T05:44:55.373Z,57.00
2022-10-11T05:47:56.898Z,56.95
2022-10-11T05:51:03.185Z,56.86
2022-10-11T05:54:04.732Z,56.73
2022-10-11T05:57:06.256Z,56.74
2022-10-11T06:00:08.392Z,56.77
2022-10-11T06:03:11.661Z,56.77
2022-10-11T06:06:13.263Z,56.78
2022-10-11T06:09:14.798Z,56.80
2022-10-11T06:12:17.292Z,56.87
2022-10-11T06:15:18.835Z,56.88
2022-10-11T06:18:20.655Z,56.98
2022-10-11T06:21:22.939Z,56.97
2022-10-11T06:24:24.530Z,56.85
2022-10-11T06:27:26.128Z,56.91
2022-10-11T06:30:27.781Z,56.86
2022-10-11T06:33:29.428Z,57.64
2022-10-11T06:36:31.048Z,57.32
2022-10-11T06:39:32.569Z,56.99
2022-10-11T06:42:34.118Z,57.00
2022-10-11T06:45:35.647Z,57.13
2022-10-11T06:48:42.147Z,56.97
2022-10-11T06:51:43.677Z,57.00
2022-10-11T06:54:45.702Z,56.87
2022-10-11T06:57:47.234Z,56.85
2022-10-11T07:00:48.835Z,56.69
2022-10-11T07:03:52.805Z,56.89
2022-10-11T07:06:54.343Z,56.98
2022-10-11T07:09:55.861Z,57.00
2022-10-11T07:12:57.447Z,56.87
2022-10-11T07:16:07.796Z,56.98
2022-10-11T07:19:10.361Z,56.91
2022-10-11T07:22:11.900Z,56.90
2022-10-11T07:25:13.407Z,56.89
2022-10-11T07:28:15.016Z,56.86
2022-10-11T07:31:22.206Z,56.98
2022-10-11T07:34:24.636Z,57.11
2022-10-11T07:37:26.242Z,56.94
2022-10-11T07:40:27.820Z,56.95
2022-10-11T07:43:29.569Z,57.05
2022-10-11T07:46:31.771Z,57.07
2022-10-11T07:49:33.354Z,57.11
2022-10-11T07:52:35.489Z,57.04
2022-10-11T07:55:40.621Z,57.04
2022-10-11T07:58:43.125Z,57.06
2022-10-11T08:01:44.908Z,57.04
2022-10-11T08:04:46.465Z,57.09
2022-10-11T08:07:48.833Z,57.03
2022-10-11T08:10:50.439Z,57.04
2022-10-11T08:13:52.031Z,57.26
2022-10-11T08:16:53.612Z,57.21
2022-10-11T08:19:55.205Z,57.13
2022-10-11T08:22:56.731Z,57.04
2022-10-11T08:25:58.803Z,56.97
2022-10-11T08:29:04.403Z,56.93
2022-10-11T08:32:05.997Z,57.04
2022-10-11T08:35:07.850Z,57.08
2022-10-11T08:38:09.590Z,57.01
2022-10-11T08:41:26.628Z,57.17
2022-10-11T08:45:12.636Z,57.15
2022-10-11T08:48:16.408Z,57.20
2022-10-11T08:51:27.941Z,57.12
2022-10-11T08:54:38.144Z,57.10
2022-10-11T08:57:40.439Z,57.05
2022-10-11T09:00:59.331Z,57.12
2022-10-11T09:04:00.937Z,57.01
2022-10-11T09:07:19.038Z,57.25
2022-10-11T09:10:20.616Z,57.22
2022-10-11T09:13:42.637Z,57.12
2022-10-11T09:16:52.333Z,57.04
2022-10-11T09:20:20.583Z,57.20
2022-10-11T09:23:27.932Z,56.94
2022-10-11T09:26:40.282Z,56.82
2022-10-11T09:30:02.532Z,56.86
2022-10-11T09:33:34.476Z,56.85
2022-10-11T09:36:42.012Z,56.83
2022-10-11T09:39:53.195Z,56.88
2022-10-11T09:42:54.724Z,56.97
2022-10-11T09:45:56.326Z,56.90
2022-10-11T09:49:00.131Z,56.83
2022-10-11T09:52:04.105Z,56.78
2022-10-11T09:55:05.860Z,56.69
2022-10-11T09:58:27.634Z,56.77
2022-10-11T10:01:30.931Z,56.57
2022-10-11T10:04:32.604Z,56.66
2022-10-11T10:07:36.203Z,56.48
2022-10-11T10:10:39.282Z,56.41
2022-10-11T10:13:42.592Z,56.43
2022-10-11T10:16:44.508Z,56.40
2022-10-11T10:19:53.230Z,56.21
2022-10-11T10:22:54.967Z,56.11
2022-10-11T10:26:17.908Z,56.16
2022-10-11T10:29:20.266Z,56.11
2022-10-11T10:32:28.127Z,56.11
2022-10-11T10:35:41.515Z,55.88
2022-10-11T10:39:06.063Z,56.01
2022-10-11T10:42:14.557Z,55.77
2022-10-11T10:45:21.547Z,55.98
2022-10-11T10:49:23.623Z,55.92
2022-10-11T10:52:34.529Z,55.89
2022-10-11T10:55:51.649Z,56.06
2022-10-11T10:58:59.103Z,55.91
2022-10-11T11:02:35.322Z,56.07
2022-10-11T11:05:50.787Z,56.34
2022-10-11T11:09:00.489Z,56.03
2022-10-11T11:12:34.682Z,55.82
2022-10-11T11:15:43.064Z,55.68
2022-10-11T11:19:05.811Z,55.63
2022-10-11T11:22:19.395Z,55.81
2022-10-11T11:26:04.848Z,55.50
2022-10-11T11:29:33.076Z,55.73
2022-10-11T11:32:57.493Z,55.48
2022-10-11T11:36:05.821Z,55.58
2022-10-11T11:39:16.369Z,55.32
2022-10-11T11:42:24.519Z,55.65
2022-10-11T11:45:54.998Z,55.34
2022-10-11T11:49:00.499Z,55.29
2022-10-11T11:52:04.487Z,55.14
2022-10-11T11:55:10.920Z,55.05
2022-10-11T11:58:48.264Z,55.18
2022-10-11T12:02:02.006Z,54.78
2022-10-11T12:05:07.187Z,55.16
2022-10-11T12:08:25.672Z,55.06
2022-10-11T12:11:34.631Z,54.84
2022-10-11T12:14:40.231Z,54.58
2022-10-11T12:17:57.383Z,54.80
2022-10-11T12:21:16.974Z,54.92
2022-10-11T12:24:18.423Z,54.74
2022-10-11T12:27:47.458Z,54.67
2022-10-11T12:30:50.810Z,54.75
2022-10-11T12:34:03.483Z,54.86
2022-10-11T12:37:20.271Z,54.54
2022-10-11T12:40:41.969Z,54.75
2022-10-11T12:43:49.438Z,54.71
2022-10-11T12:46:50.941Z,54.48
2022-10-11T12:50:12.013Z,54.55
2022-10-11T12:53:22.511Z,54.32
2022-10-11T12:56:42.005Z,54.07
2022-10-11T12:59:45.434Z,54.29
2022-10-11T13:02:48.621Z,54.18
2022-10-11T13:05:53.713Z,54.05
2022-10-11T13:09:14.761Z,53.94
2022-10-11T13:12:20.277Z,53.89
2022-10-11T13:15:23.804Z,54.12
2022-10-11T13:18:26.587Z,54.03
2022-10-11T13:21:36.306Z,54.12
2022-10-11T13:24:40.046Z,53.91
2022-10-11T13:27:42.584Z,53.90
2022-10-11T13:30:47.006Z,53.96
2022-10-11T13:33:48.690Z,53.99
2022-10-11T13:36:56.517Z,53.77
2022-10-11T13:39:58.801Z,53.85
2022-10-11T13:43:00.967Z,53.70
2022-10-11T13:46:06.773Z,53.80
2022-10-11T13:49:28.064Z,53.85
2022-10-11T13:52:29.585Z,53.59
2022-10-11T13:55:51.909Z,53.66
2022-10-11T13:58:54.503Z,53.60
2022-10-11T14:02:01.826Z,53.84
2022-10-11T14:05:03.713Z,53.41
2022-10-11T14:08:42.135Z,53.59
2022-10-11T14:11:45.542Z,53.54
2022-10-11T14:14:48.008Z,53.59
2022-10-11T14:17:51.191Z,53.79
2022-10-11T14:20:53.275Z,53.68
2022-10-11T14:24:02.445Z,53.68
2022-10-11T14:27:05.901Z,53.68
2022-10-11T14:30:25.515Z,53.95
2022-10-11T14:33:27.913Z,53.93
2022-10-11T14:36:30.140Z,53.93
2022-10-11T14:39:32.715Z,53.65
2022-10-11T14:42:34.468Z,53.57
2022-10-11T14:45:37.516Z,53.94
2022-10-11T14:48:55.860Z,53.66
2022-10-11T14:51:59.332Z,53.70
2022-10-11T14:55:00.881Z,53.71
2022-10-11T14:58:02.793Z,53.54
2022-10-11T15:01:04.466Z,53.68
2022-10-11T15:04:06.068Z,53.91
2022-10-11T15:07:07.741Z,53.94
2022-10-11T15:10:33.485Z,53.71
2022-10-11T15:13:35.013Z,53.99
2022-10-11T15:16:36.637Z,53.75
2022-10-11T15:19:38.169Z,53.77
2022-10-11T15:22:39.921Z,54.09
2022-10-11T15:25:42.380Z,54.01
2022-10-11T15:28:45.084Z,54.06
2022-10-11T15:31:46.662Z,53.84
2022-10-11T15:34:48.198Z,54.11
2022-10-11T15:37:54.893Z,53.66
2022-10-11T15:40:56.452Z,53.65
2022-10-11T15:43:58.002Z,54.10
2022-10-11T15:46:59.538Z,54.14
2022-10-11T15:50:01.288Z,54.09
2022-10-11T15:53:31.542Z,53.97
2022-10-11T15:56:33.977Z,54.07
2022-10-11T15:59:35.837Z,54.16
2022-10-11T16:02:37.359Z,53.97
2022-10-11T16:05:39.808Z,54.21
2022-10-11T16:08:41.529Z,53.88
2022-10-11T16:11:43.130Z,54.28
2022-10-11T16:14:47.245Z,54.06
2022-10-11T16:17:49.521Z,53.81
2022-10-11T16:20:52.092Z,54.28
2022-10-11T16:23:53.685Z,54.42
2022-10-11T16:26:55.927Z,54.12
2022-10-11T16:29:58.444Z,54.02
2022-10-11T16:33:01.060Z,54.45
2022-10-11T16:36:26.536Z,54.52
2022-10-11T16:39:28.493Z,54.46
2022-10-11T16:42:30.523Z,54.31
2022-10-11T16:45:33.539Z,54.26
2022-10-11T16:48:35.068Z,54.51
2022-10-11T16:51:36.665Z,54.26
2022-10-11T16:54:38.635Z,54.48
2022-10-11T16:57:40.318Z,54.38
2022-10-11T17:00:42.812Z,54.36
2022-10-11T17:03:44.593Z,54.70
2022-10-11T17:06:46.394Z,54.52
2022-10-11T17:09:50.997Z,54.51
2022-10-11T17:12:54.950Z,54.42
2022-10-11T17:15:56.695Z,54.57
2022-10-11T17:18:58.224Z,54.69
2022-10-11T17:21:59.915Z,54.47
2022-10-11T17:25:03.361Z,54.63
2022-10-11T17:28:04.911Z,54.58
2022-10-11T17:31:08.155Z,54.61
2022-10-11T17:34:12.883Z,54.60
2022-10-11T17:37:14.461Z,54.37
2022-10-11T17:40:16.368Z,54.45
2022-10-11T17:43:17.892Z,54.34
2022-10-11T17:46:22.287Z,54.43
2022-10-11T17:49:23.812Z,54.23
2022-10-11T17:52:25.397Z,54.15
2022-10-11T17:55:26.956Z,54.42
2022-10-11T17:58:28.562Z,54.28
2022-10-11T18:01:30.252Z,54.30
2022-10-11T18:04:32.042Z,54.28
2022-10-11T18:07:34.129Z,54.21
2022-10-11T18:10:38.798Z,54.17
2022-10-11T18:13:45.721Z,54.34
2022-10-11T18:16:47.357Z,54.38
2022-10-11T18:19:48.897Z,54.37
2022-10-11T18:22:50.614Z,54.32
2022-10-11T18:25:52.194Z,54.51
2022-10-11T18:28:55.113Z,54.41
2022-10-11T18:31:56.727Z,54.36
2022-10-11T18:34:59.808Z,54.38
2022-10-11T18:38:01.449Z,54.51
2022-10-11T18:41:08.661Z,54.37
2022-10-11T18:44:14.038Z,54.36
2022-10-11T18:47:15.656Z,54.40
2022-10-11T18:50:18.172Z,54.44
2022-10-11T18:53:19.725Z,54.36
2022-10-11T18:56:24.650Z,54.47
2022-10-11T18:59:26.196Z,54.50
2022-10-11T19:02:28.012Z,54.45
2022-10-11T19:05:29.557Z,54.45
2022-10-11T19:08:31.362Z,54.53
2022-10-11T19:11:33.338Z,54.52
2022-10-11T19:14:34.910Z,54.46
2022-10-11T19:17:36.920Z,54.45
2022-10-11T19:20:38.954Z,54.47
2022-10-11T19:23:43.282Z,54.34
2022-10-11T19:26:45.437Z,54.29
2022-10-11T19:29:47.091Z,54.39
2022-10-11T19:32:48.627Z,54.43
2022-10-11T19:35:54.773Z,54.41
2022-10-11T19:38:57.062Z,54.50
2022-10-11T19:41:58.724Z,54.50
2022-10-11T19:45:00.527Z,54.56
2022-10-11T19:48:02.200Z,54.48
2022-10-11T19:51:09.634Z,54.51
2022-10-11T19:54:13.036Z,54.67
2022-10-11T19:57:14.601Z,54.50
2022-10-11T20:00:16.689Z,54.45
2022-10-11T20:03:18.200Z,54.44
2022-10-11T20:06:21.540Z,54.24
2022-10-11T20:09:31.072Z,54.59
2022-10-11T20:12:33.478Z,54.53
2022-10-11T20:15:37.407Z,54.57
2022-10-11T20:18:39.560Z,54.49
2022-10-11T20:21:42.012Z,54.51
2022-10-11T20:24:43.867Z,54.72
2022-10-11T20:27:46.469Z,54.66
2022-10-11T20:30:48.004Z,54.93
2022-10-11T20:33:49.722Z,54.77
2022-10-11T20:36:51.284Z,54.67
2022-10-11T20:39:52.806Z,54.65
2022-10-11T20:42:54.333Z,54.71
2022-10-11T20:46:02.870Z,54.59
2022-10-11T20:49:11.265Z,54.46
2022-10-11T20:52:12.874Z,54.56
2022-10-11T20:55:14.408Z,54.59
2022-10-11T20:58:16.505Z,54.75
2022-10-11T21:01:27.460Z,54.72
2022-10-11T21:04:29.477Z,54.57
2022-10-11T21:07:31.226Z,54.70
2022-10-11T21:10:32.992Z,54.56
2022-10-11T21:13:34.860Z,54.54
2022-10-11T21:16:36.725Z,54.43
2022-10-11T21:19:38.236Z,54.41
2022-10-11T21:22:39.925Z,54.35
2022-10-11T21:25:41.674Z,54.41
2022-10-11T21:28:45.291Z,54.52
2022-10-11T21:31:46.859Z,54.38
2022-10-11T21:34:48.416Z,54.44
2022-10-11T21:37:50.077Z,54.53
2022-10-11T21:40:51.915Z,54.48
2022-10-11T21:43:53.736Z,54.55
2022-10-11T21:47:06.968Z,54.55
2022-10-11T21:50:10.052Z,54.65
2022-10-11T21:53:11.622Z,54.47
2022-10-11T21:56:13.226Z,54.44
2022-10-11T21:59:14.785Z,54.46
2022-10-11T22:02:16.309Z,54.47
2022-10-11T22:05:18.817Z,54.46
2022-10-11T22:08:20.400Z,54.47
2022-10-11T22:11:22.009Z,54.49
2022-10-11T22:14:24.474Z,54.55
2022-10-11T22:17:26.066Z,54.40
2022-10-11T22:20:27.786Z,54.21
2022-10-11T22:23:29.292Z,54.27
2022-10-11T22:26:31.425Z,54.24
2022-10-11T22:29:34.402Z,54.35
2022-10-11T22:32:36.362Z,54.44
2022-10-11T22:35:38.265Z,54.52
2022-10-11T22:38:42.085Z,54.62
2022-10-11T22:41:43.613Z,54.72
2022-10-11T22:44:45.156Z,54.68
2022-10-11T22:47:46.678Z,54.85
2022-10-11T22:50:48.303Z,54.90
2022-10-11T22:53:49.907Z,54.91
2022-10-11T22:56:51.439Z,55.00
2022-10-11T22:59:53.011Z,54.96
2022-10-11T23:02:54.546Z,55.16
2022-10-11T23:05:57.899Z,55.12
2022-10-11T23:08:59.497Z,55.27
2022-10-11T23:12:01.021Z,55.28
2022-10-11T23:15:02.576Z,55.38
2022-10-11T23:18:04.196Z,55.39
2022-10-11T23:21:06.751Z,55.42
2022-10-11T23:24:08.407Z,55.40
2022-10-11T23:27:10.073Z,55.46
2022-10-11T23:30:12.518Z,55.46
2022-10-11T23:33:14.069Z,55.59
2022-10-11T23:36:23.139Z,55.53
2022-10-11T23:39:24.652Z,55.65
2022-10-11T23:42:26.315Z,55.47
2022-10-11T23:45:27.869Z,55.56
2022-10-11T23:48:29.399Z,55.61
2022-10-11T23:51:31.005Z,55.72
2022-10-11T23:54:32.548Z,55.57
2022-10-11T23:57:34.108Z,55.70
